FIN9BL EFHK-LGSA
Flight info
| Callsign | FIN9BL |
|---|---|
| Flight time | N/A |
| Altitude | 34000 |
| Route | KOIVU Y123 LARTI DCT KEMET DCT SOKVA DCT ROLAV DCT BOKSU DCT UNPEG DCT XESNA DCT GERVI DCT ABULI DCT PARAK/N0445F350 DCT VAL DCT UTOMO DCT ODRAS DCT DIMIS UL604 PLH |
| Aircraft | A321/M-SDE1E2E3FGHIJ1M1RWXYZ/LB1 |
Departure
| Time | 2026-04-23 09:25 |
|---|---|
| Airport | Helsinki Vantaa Airport (EFHK) |
Arrival
| Time | N/A |
|---|---|
| Airport | Chania International Airport (LGSA) |
| Time | Latitude | Longitude | Altitude | Speed | Heading |
|---|---|---|---|---|---|
| 2026-04-23 08:57 | 60.31674 | 24.97213 | 167 ft | 0 kts | 243° |
| 2026-04-23 09:14 | 60.31674 | 24.97214 | 166 ft | 1 kts | 243° |
| 2026-04-23 09:14 | 60.31680 | 24.97239 | 166 ft | 3 kts | 244° |
| 2026-04-23 09:14 | 60.31688 | 24.97276 | 166 ft | 3 kts | 253° |
| 2026-04-23 09:14 | 60.31692 | 24.97312 | 166 ft | 3 kts | 282° |
| 2026-04-23 09:15 | 60.31688 | 24.97335 | 166 ft | 2 kts | 330° |
| 2026-04-23 09:15 | 60.31686 | 24.97338 | 166 ft | 0 kts | 333° |
| 2026-04-23 09:17 | 60.31687 | 24.97336 | 166 ft | 1 kts | 332° |
| 2026-04-23 09:17 | 60.31695 | 24.97328 | 166 ft | 2 kts | 332° |
| 2026-04-23 09:17 | 60.31709 | 24.97312 | 166 ft | 3 kts | 331° |
| 2026-04-23 09:18 | 60.31728 | 24.97291 | 166 ft | 4 kts | 331° |
| 2026-04-23 09:18 | 60.31752 | 24.97264 | 166 ft | 4 kts | 330° |
| 2026-04-23 09:18 | 60.31780 | 24.97233 | 166 ft | 5 kts | 333° |
| 2026-04-23 09:18 | 60.31820 | 24.97192 | 166 ft | 8 kts | 333° |
| 2026-04-23 09:19 | 60.31880 | 24.97131 | 166 ft | 11 kts | 334° |
| 2026-04-23 09:19 | 60.31961 | 24.97054 | 166 ft | 14 kts | 333° |
| 2026-04-23 09:19 | 60.32057 | 24.96953 | 166 ft | 17 kts | 331° |
| 2026-04-23 09:19 | 60.32162 | 24.96830 | 166 ft | 17 kts | 330° |
| 2026-04-23 09:20 | 60.32244 | 24.96685 | 167 ft | 13 kts | 271° |
| 2026-04-23 09:20 | 60.32208 | 24.96575 | 168 ft | 9 kts | 232° |
| 2026-04-23 09:20 | 60.32163 | 24.96476 | 168 ft | 10 kts | 225° |
| 2026-04-23 09:20 | 60.32114 | 24.96372 | 168 ft | 11 kts | 228° |
| 2026-04-23 09:21 | 60.32061 | 24.96251 | 168 ft | 12 kts | 228° |
| 2026-04-23 09:21 | 60.31988 | 24.96088 | 169 ft | 20 kts | 230° |
| 2026-04-23 09:21 | 60.31894 | 24.95839 | 170 ft | 26 kts | 213° |
| 2026-04-23 09:21 | 60.31759 | 24.95580 | 170 ft | 27 kts | 227° |
| 2026-04-23 09:22 | 60.31632 | 24.95304 | 170 ft | 27 kts | 227° |
| 2026-04-23 09:22 | 60.31503 | 24.95024 | 169 ft | 28 kts | 228° |
| 2026-04-23 09:22 | 60.31369 | 24.94725 | 163 ft | 30 kts | 227° |
| 2026-04-23 09:22 | 60.31227 | 24.94418 | 159 ft | 27 kts | 226° |
| 2026-04-23 09:23 | 60.31099 | 24.94134 | 157 ft | 26 kts | 227° |
| 2026-04-23 09:23 | 60.31036 | 24.93953 | 158 ft | 12 kts | 256° |
| 2026-04-23 09:23 | 60.31056 | 24.93803 | 159 ft | 12 kts | 308° |
| 2026-04-23 09:23 | 60.31130 | 24.93684 | 158 ft | 10 kts | 351° |
| 2026-04-23 09:24 | 60.31180 | 24.93744 | 158 ft | 8 kts | 47° |
| 2026-04-23 09:24 | 60.31297 | 24.93995 | 160 ft | 56 kts | 47° |
| 2026-04-23 09:24 | 60.31716 | 24.94913 | 171 ft | 119 kts | 47° |
| 2026-04-23 09:24 | 60.32392 | 24.96423 | 243 ft | 163 kts | 42° |
| 2026-04-23 09:25 | 60.33066 | 24.98040 | 1210 ft | 144 kts | 42° |
| 2026-04-23 09:25 | 60.33713 | 24.99565 | 2014 ft | 144 kts | 42° |
| 2026-04-23 09:25 | 60.34402 | 25.01170 | 2510 ft | 160 kts | 41° |
| 2026-04-23 09:25 | 60.35218 | 25.02910 | 2861 ft | 180 kts | 41° |
| 2026-04-23 09:26 | 60.36138 | 25.04855 | 3044 ft | 203 kts | 41° |
| 2026-04-23 09:26 | 60.37179 | 25.07069 | 3324 ft | 229 kts | 42° |
| 2026-04-23 09:26 | 60.38310 | 25.09509 | 3834 ft | 243 kts | 43° |
| 2026-04-23 09:26 | 60.39236 | 25.12410 | 4612 ft | 253 kts | 69° |
| 2026-04-23 09:27 | 60.39230 | 25.16050 | 5425 ft | 269 kts | 97° |
| 2026-04-23 09:27 | 60.38609 | 25.19621 | 6247 ft | 277 kts | 107° |
| 2026-04-23 09:27 | 60.37748 | 25.23161 | 6949 ft | 283 kts | 110° |
| 2026-04-23 09:27 | 60.36806 | 25.26714 | 7640 ft | 288 kts | 111° |
| 2026-04-23 09:28 | 60.35850 | 25.30309 | 8344 ft | 293 kts | 112° |
| 2026-04-23 09:28 | 60.34579 | 25.33648 | 9001 ft | 309 kts | 131° |
| 2026-04-23 09:28 | 60.32781 | 25.36191 | 9672 ft | 323 kts | 151° |
| 2026-04-23 09:28 | 60.30602 | 25.37529 | 10267 ft | 333 kts | 173° |
| 2026-04-23 09:29 | 60.28231 | 25.37699 | 10555 ft | 352 kts | 181° |
| 2026-04-23 09:29 | 60.25760 | 25.37099 | 10687 ft | 371 kts | 196° |
| 2026-04-23 09:29 | 60.23272 | 25.35337 | 10875 ft | 385 kts | 210° |
| 2026-04-23 09:29 | 60.20973 | 25.32537 | 11337 ft | 387 kts | 222° |
| 2026-04-23 09:30 | 60.18938 | 25.29001 | 11906 ft | 388 kts | 228° |
| 2026-04-23 09:30 | 60.16926 | 25.25321 | 12496 ft | 392 kts | 229° |
| 2026-04-23 09:30 | 60.14897 | 25.21608 | 13079 ft | 397 kts | 229° |
| 2026-04-23 09:30 | 60.12866 | 25.17886 | 13662 ft | 401 kts | 229° |
| 2026-04-23 09:31 | 60.10787 | 25.14082 | 14181 ft | 405 kts | 229° |
| 2026-04-23 09:31 | 60.08710 | 25.10297 | 14019 ft | 402 kts | 229° |
| 2026-04-23 09:31 | 60.06635 | 25.06524 | 13797 ft | 406 kts | 229° |
| 2026-04-23 09:31 | 60.04556 | 25.02740 | 14358 ft | 408 kts | 229° |
| 2026-04-23 09:32 | 60.02443 | 24.98900 | 14937 ft | 410 kts | 229° |
| 2026-04-23 09:32 | 60.00318 | 24.95044 | 15502 ft | 414 kts | 229° |
| 2026-04-23 09:32 | 59.98176 | 24.91162 | 16048 ft | 417 kts | 229° |
| 2026-04-23 09:32 | 59.96017 | 24.87252 | 16607 ft | 420 kts | 229° |
| 2026-04-23 09:33 | 59.93865 | 24.83363 | 17147 ft | 423 kts | 229° |
| 2026-04-23 09:33 | 59.91673 | 24.79417 | 17693 ft | 426 kts | 229° |
| 2026-04-23 09:33 | 59.89459 | 24.75440 | 18225 ft | 430 kts | 229° |
| 2026-04-23 09:33 | 59.87214 | 24.71465 | 18671 ft | 435 kts | 226° |
| 2026-04-23 09:34 | 59.84685 | 24.68007 | 19117 ft | 447 kts | 214° |
| 2026-04-23 09:34 | 59.81816 | 24.65441 | 19544 ft | 457 kts | 202° |
| 2026-04-23 09:34 | 59.78714 | 24.63807 | 19984 ft | 464 kts | 196° |
| 2026-04-23 09:34 | 59.75555 | 24.62346 | 20434 ft | 467 kts | 196° |
| 2026-04-23 09:35 | 59.72378 | 24.60857 | 20873 ft | 471 kts | 196° |
| 2026-04-23 09:35 | 59.69171 | 24.59352 | 21301 ft | 475 kts | 195° |
| 2026-04-23 09:35 | 59.65930 | 24.58389 | 21700 ft | 481 kts | 185° |
| 2026-04-23 09:35 | 59.62566 | 24.58262 | 22100 ft | 485 kts | 180° |
| 2026-04-23 09:36 | 59.59177 | 24.58281 | 22504 ft | 488 kts | 180° |
| 2026-04-23 09:36 | 59.55759 | 24.58307 | 22895 ft | 491 kts | 180° |
| 2026-04-23 09:36 | 59.52326 | 24.58333 | 23286 ft | 495 kts | 180° |
| 2026-04-23 09:36 | 59.48871 | 24.58353 | 23638 ft | 498 kts | 180° |
| 2026-04-23 09:37 | 59.45380 | 24.58366 | 23950 ft | 501 kts | 180° |
| 2026-04-23 09:37 | 59.41881 | 24.58381 | 24246 ft | 505 kts | 180° |
| 2026-04-23 09:37 | 59.38354 | 24.58403 | 24563 ft | 508 kts | 180° |
| 2026-04-23 09:37 | 59.34808 | 24.58426 | 24862 ft | 511 kts | 180° |
| 2026-04-23 09:38 | 59.31276 | 24.58443 | 25156 ft | 515 kts | 180° |
| 2026-04-23 09:38 | 59.27684 | 24.58456 | 25454 ft | 518 kts | 180° |
| 2026-04-23 09:38 | 59.24063 | 24.58466 | 25764 ft | 521 kts | 180° |
| 2026-04-23 09:38 | 59.20419 | 24.58478 | 26043 ft | 524 kts | 180° |
| 2026-04-23 09:39 | 59.16757 | 24.58498 | 26347 ft | 527 kts | 180° |
| 2026-04-23 09:39 | 59.13067 | 24.58519 | 26632 ft | 530 kts | 180° |
| 2026-04-23 09:39 | 59.09367 | 24.58538 | 26914 ft | 533 kts | 180° |
| 2026-04-23 09:39 | 59.05648 | 24.58556 | 27190 ft | 536 kts | 180° |
| 2026-04-23 09:40 | 59.01949 | 24.58566 | 27462 ft | 539 kts | 180° |
| 2026-04-23 09:40 | 58.98190 | 24.58571 | 27726 ft | 542 kts | 180° |
| 2026-04-23 09:40 | 58.94400 | 24.58580 | 27989 ft | 545 kts | 180° |
| 2026-04-23 09:40 | 58.90580 | 24.58592 | 28250 ft | 548 kts | 180° |
| 2026-04-23 09:41 | 58.86755 | 24.58609 | 28506 ft | 550 kts | 180° |
| 2026-04-23 09:41 | 58.82920 | 24.58633 | 28762 ft | 553 kts | 180° |
| 2026-04-23 09:41 | 58.79054 | 24.58658 | 29025 ft | 556 kts | 180° |
| 2026-04-23 09:41 | 58.75226 | 24.58675 | 29280 ft | 559 kts | 181° |
| 2026-04-23 09:42 | 58.71332 | 24.58243 | 29533 ft | 560 kts | 189° |
| 2026-04-23 09:42 | 58.67488 | 24.56994 | 29788 ft | 561 kts | 193° |
| 2026-04-23 09:42 | 58.63636 | 24.55602 | 30096 ft | 562 kts | 193° |
| 2026-04-23 09:42 | 58.59783 | 24.54225 | 30435 ft | 562 kts | 193° |
| 2026-04-23 09:43 | 58.55935 | 24.52863 | 30769 ft | 561 kts | 193° |
| 2026-04-23 09:43 | 58.52088 | 24.51509 | 31101 ft | 561 kts | 193° |
| 2026-04-23 09:43 | 58.48245 | 24.50162 | 31428 ft | 560 kts | 193° |
| 2026-04-23 09:43 | 58.44416 | 24.48819 | 31749 ft | 560 kts | 193° |
| 2026-04-23 09:44 | 58.40628 | 24.47489 | 32062 ft | 559 kts | 193° |
| 2026-04-23 09:44 | 58.36791 | 24.46139 | 32381 ft | 559 kts | 193° |
| 2026-04-23 09:44 | 58.32955 | 24.44787 | 32690 ft | 558 kts | 193° |
| 2026-04-23 09:44 | 58.29138 | 24.43445 | 32995 ft | 558 kts | 193° |
| 2026-04-23 09:45 | 58.25321 | 24.42113 | 33292 ft | 558 kts | 193° |
| 2026-04-23 09:45 | 58.21502 | 24.40788 | 33592 ft | 557 kts | 193° |
| 2026-04-23 09:45 | 58.17683 | 24.39462 | 33873 ft | 557 kts | 193° |
| 2026-04-23 09:46 | 58.10117 | 24.36842 | 33940 ft | 554 kts | 193° |
| 2026-04-23 09:46 | 58.02537 | 24.34230 | 33944 ft | 553 kts | 192° |
| 2026-04-23 09:47 | 57.94951 | 24.31655 | 33949 ft | 553 kts | 192° |
| 2026-04-23 09:47 | 57.87355 | 24.29210 | 33949 ft | 554 kts | 189° |
| 2026-04-23 09:48 | 57.79677 | 24.27695 | 33957 ft | 555 kts | 185° |
| 2026-04-23 09:48 | 57.72004 | 24.26725 | 33966 ft | 556 kts | 184° |
| 2026-04-23 09:49 | 57.64282 | 24.25608 | 33973 ft | 556 kts | 186° |
| 2026-04-23 09:49 | 57.56612 | 24.24255 | 33971 ft | 555 kts | 186° |
| 2026-04-23 09:50 | 57.48909 | 24.22839 | 33968 ft | 555 kts | 186° |
| 2026-04-23 09:50 | 57.41240 | 24.21507 | 33974 ft | 555 kts | 186° |
| 2026-04-23 09:51 | 57.33536 | 24.20230 | 33974 ft | 555 kts | 186° |
| 2026-04-23 09:51 | 57.25845 | 24.18943 | 33975 ft | 555 kts | 186° |
| 2026-04-23 09:52 | 57.18151 | 24.17643 | 33976 ft | 555 kts | 186° |
| 2026-04-23 09:52 | 57.10454 | 24.16348 | 33989 ft | 554 kts | 185° |
| 2026-04-23 09:53 | 57.02817 | 24.15070 | 33993 ft | 554 kts | 185° |
| 2026-04-23 09:53 | 56.95108 | 24.13802 | 33990 ft | 553 kts | 185° |
| 2026-04-23 09:54 | 56.87474 | 24.12544 | 33993 ft | 553 kts | 185° |
| 2026-04-23 09:54 | 56.79794 | 24.11270 | 33984 ft | 553 kts | 185° |
| 2026-04-23 09:55 | 56.72142 | 24.10000 | 33982 ft | 552 kts | 185° |
| 2026-04-23 09:55 | 56.64491 | 24.08742 | 33972 ft | 551 kts | 185° |
| 2026-04-23 09:56 | 56.56887 | 24.07509 | 33971 ft | 551 kts | 185° |
| 2026-04-23 09:56 | 56.50526 | 24.06477 | 33965 ft | 550 kts | 185° |
| 2026-04-23 09:57 | 56.42878 | 24.05244 | 33960 ft | 550 kts | 185° |
| 2026-04-23 09:57 | 56.35241 | 24.04023 | 33969 ft | 550 kts | 185° |
| 2026-04-23 09:58 | 56.27728 | 24.02063 | 33964 ft | 548 kts | 197° |
| 2026-04-23 09:58 | 56.20408 | 23.98289 | 33959 ft | 547 kts | 198° |
| 2026-04-23 09:59 | 56.13067 | 23.94524 | 33957 ft | 548 kts | 198° |
| 2026-04-23 09:59 | 56.05721 | 23.90802 | 33963 ft | 548 kts | 198° |
| 2026-04-23 10:00 | 55.98422 | 23.87110 | 33966 ft | 548 kts | 198° |
| 2026-04-23 10:00 | 55.91074 | 23.83410 | 33970 ft | 548 kts | 197° |
| 2026-04-23 10:01 | 55.83726 | 23.79715 | 33974 ft | 547 kts | 197° |
| 2026-04-23 10:01 | 55.76443 | 23.76057 | 33973 ft | 547 kts | 197° |
| 2026-04-23 10:02 | 55.69117 | 23.72391 | 33967 ft | 547 kts | 197° |
| 2026-04-23 10:02 | 55.61786 | 23.68745 | 33963 ft | 546 kts | 197° |
| 2026-04-23 10:03 | 55.54461 | 23.65126 | 33960 ft | 546 kts | 197° |
| 2026-04-23 10:03 | 55.47178 | 23.61534 | 33952 ft | 545 kts | 197° |
| 2026-04-23 10:04 | 55.39867 | 23.58018 | 33925 ft | 543 kts | 197° |
| 2026-04-23 10:04 | 55.32589 | 23.54419 | 33947 ft | 543 kts | 197° |
| 2026-04-23 10:05 | 55.25356 | 23.50844 | 33937 ft | 541 kts | 197° |
| 2026-04-23 10:05 | 55.18094 | 23.47313 | 33940 ft | 541 kts | 196° |
| 2026-04-23 10:06 | 55.10852 | 23.43809 | 33946 ft | 540 kts | 196° |
| 2026-04-23 10:06 | 55.03605 | 23.40320 | 33951 ft | 540 kts | 196° |
| 2026-04-23 10:07 | 54.96403 | 23.36872 | 33960 ft | 539 kts | 196° |
| 2026-04-23 10:07 | 54.89167 | 23.33414 | 33960 ft | 538 kts | 196° |
| 2026-04-23 10:08 | 54.81946 | 23.29959 | 33964 ft | 537 kts | 196° |
| 2026-04-23 10:08 | 54.74759 | 23.26538 | 33966 ft | 537 kts | 196° |
| 2026-04-23 10:09 | 54.63959 | 23.21430 | 33962 ft | 535 kts | 196° |
| 2026-04-23 10:09 | 54.56829 | 23.18071 | 33963 ft | 533 kts | 195° |
| 2026-04-23 10:10 | 54.49650 | 23.14712 | 33960 ft | 532 kts | 195° |
| 2026-04-23 10:10 | 54.42498 | 23.11368 | 33966 ft | 531 kts | 195° |
| 2026-04-23 10:11 | 54.35403 | 23.08068 | 33965 ft | 530 kts | 195° |
| 2026-04-23 10:11 | 54.28287 | 23.04783 | 33964 ft | 529 kts | 195° |
| 2026-04-23 10:12 | 54.21174 | 23.01563 | 33960 ft | 527 kts | 195° |
| 2026-04-23 10:12 | 54.14110 | 22.98406 | 33963 ft | 526 kts | 194° |
| 2026-04-23 10:13 | 54.07024 | 22.95228 | 33956 ft | 525 kts | 195° |
| 2026-04-23 10:13 | 53.99958 | 22.92068 | 33960 ft | 523 kts | 194° |
| 2026-04-23 10:14 | 53.92957 | 22.88955 | 33960 ft | 522 kts | 194° |
| 2026-04-23 10:14 | 53.85933 | 22.85849 | 33959 ft | 520 kts | 194° |
| 2026-04-23 10:15 | 53.78924 | 22.82756 | 33952 ft | 519 kts | 194° |
| 2026-04-23 10:15 | 53.71952 | 22.79673 | 33959 ft | 517 kts | 194° |
| 2026-04-23 10:16 | 53.65031 | 22.76625 | 33952 ft | 516 kts | 194° |
| 2026-04-23 10:16 | 53.58082 | 22.73589 | 33956 ft | 515 kts | 194° |
| 2026-04-23 10:17 | 53.51156 | 22.70570 | 33951 ft | 513 kts | 194° |
| 2026-04-23 10:17 | 53.44234 | 22.67564 | 33949 ft | 512 kts | 194° |
| 2026-04-23 10:18 | 53.37382 | 22.64606 | 33948 ft | 511 kts | 194° |
| 2026-04-23 10:18 | 53.30470 | 22.61616 | 33947 ft | 510 kts | 193° |
| 2026-04-23 10:19 | 53.23597 | 22.58682 | 33948 ft | 509 kts | 193° |
| 2026-04-23 10:19 | 53.16681 | 22.56077 | 33951 ft | 508 kts | 191° |
| 2026-04-23 10:20 | 53.09810 | 22.53688 | 33946 ft | 507 kts | 191° |
| 2026-04-23 10:20 | 53.02910 | 22.51255 | 33949 ft | 506 kts | 191° |
| 2026-04-23 10:21 | 52.96032 | 22.48755 | 33942 ft | 505 kts | 191° |
| 2026-04-23 10:21 | 52.89221 | 22.46263 | 33949 ft | 503 kts | 191° |
| 2026-04-23 10:22 | 52.82378 | 22.43781 | 33946 ft | 502 kts | 191° |
| 2026-04-23 10:22 | 52.75550 | 22.41325 | 33945 ft | 501 kts | 191° |
| 2026-04-23 10:23 | 52.68739 | 22.38880 | 33943 ft | 500 kts | 191° |
| 2026-04-23 10:23 | 52.61949 | 22.36451 | 33949 ft | 499 kts | 191° |
| 2026-04-23 10:24 | 52.55170 | 22.34037 | 33946 ft | 498 kts | 191° |
| 2026-04-23 10:24 | 52.48436 | 22.31647 | 33949 ft | 497 kts | 191° |
| 2026-04-23 10:25 | 52.41664 | 22.29256 | 33954 ft | 496 kts | 191° |
| 2026-04-23 10:25 | 52.34954 | 22.26894 | 33956 ft | 496 kts | 191° |
| 2026-04-23 10:26 | 52.28201 | 22.24523 | 33952 ft | 495 kts | 191° |
| 2026-04-23 10:26 | 52.21465 | 22.22166 | 33962 ft | 494 kts | 191° |